createdAt,value
2022-12-07T00:00:55.513Z,1008.69
2022-12-07T00:01:55.581Z,1008.71
2022-12-07T00:02:55.640Z,1008.67
2022-12-07T00:03:55.622Z,1008.67
2022-12-07T00:04:55.662Z,1008.66
2022-12-07T00:05:55.701Z,1008.68
2022-12-07T00:06:55.729Z,1008.68
2022-12-07T00:07:55.832Z,1008.72
2022-12-07T00:08:55.782Z,1008.63
2022-12-07T00:09:55.836Z,1008.62
2022-12-07T00:10:55.835Z,1008.66
2022-12-07T00:11:55.856Z,1008.58
2022-12-07T00:12:55.889Z,1008.59
2022-12-07T00:13:55.926Z,1008.54
2022-12-07T00:14:55.976Z,1008.56
2022-12-07T00:15:55.962Z,1008.57
2022-12-07T00:16:56.068Z,1008.60
2022-12-07T00:17:56.030Z,1008.60
2022-12-07T00:18:56.070Z,1008.59
2022-12-07T00:19:56.120Z,1008.55
2022-12-07T00:20:56.114Z,1008.58
2022-12-07T00:21:56.159Z,1008.55
2022-12-07T00:22:56.148Z,1008.51
2022-12-07T00:23:56.192Z,1008.52
2022-12-07T00:24:56.246Z,1008.49
2022-12-07T00:25:56.235Z,1008.51
2022-12-07T00:26:56.269Z,1008.46
2022-12-07T00:27:56.303Z,1008.47
2022-12-07T00:28:56.346Z,1008.50
2022-12-07T00:29:56.403Z,1008.46
2022-12-07T00:30:56.393Z,1008.46
2022-12-07T00:31:56.408Z,1008.45
2022-12-07T00:32:56.485Z,1008.44
2022-12-07T00:33:56.443Z,1008.46
2022-12-07T00:34:56.476Z,1008.41
2022-12-07T00:35:56.491Z,1008.45
2022-12-07T00:36:56.532Z,1008.44
2022-12-07T00:37:56.562Z,1008.41
2022-12-07T00:38:56.593Z,1008.41
2022-12-07T00:39:56.635Z,1008.41
2022-12-07T00:40:56.668Z,1008.41
2022-12-07T00:41:56.700Z,1008.38
2022-12-07T00:42:56.725Z,1008.40
2022-12-07T00:43:56.757Z,1008.37
2022-12-07T00:44:56.806Z,1008.34
2022-12-07T00:45:56.843Z,1008.35
2022-12-07T00:46:56.835Z,1008.35
2022-12-07T00:47:56.863Z,1008.36
2022-12-07T00:48:56.892Z,1008.35
2022-12-07T00:49:56.948Z,1008.36
2022-12-07T00:50:56.946Z,1008.34
2022-12-07T00:51:56.980Z,1008.31
2022-12-07T00:52:56.978Z,1008.33
2022-12-07T00:53:56.995Z,1008.28
2022-12-07T00:54:57.036Z,1008.31
2022-12-07T00:55:57.037Z,1008.33
2022-12-07T00:56:57.067Z,1008.31
2022-12-07T00:57:57.103Z,1008.33
2022-12-07T00:58:57.140Z,1008.31
2022-12-07T00:59:57.163Z,1008.31
2022-12-07T01:00:57.236Z,1008.29
2022-12-07T01:01:57.232Z,1008.27
2022-12-07T01:02:57.220Z,1008.25
2022-12-07T01:03:57.216Z,1008.25
2022-12-07T01:04:57.251Z,1008.24
2022-12-07T01:05:57.240Z,1008.25
2022-12-07T01:06:57.276Z,1008.25
2022-12-07T01:07:57.352Z,1008.21
2022-12-07T01:08:57.341Z,1008.21
2022-12-07T01:09:57.387Z,1008.22
2022-12-07T01:10:57.373Z,1008.19
2022-12-07T01:11:57.391Z,1008.16
2022-12-07T01:12:57.420Z,1008.14
2022-12-07T01:13:57.444Z,1008.09
2022-12-07T01:14:57.507Z,1008.10
2022-12-07T01:15:57.506Z,1008.07
2022-12-07T01:16:57.671Z,1008.07
2022-12-07T01:17:57.570Z,1008.06
2022-12-07T01:18:57.592Z,1008.08
2022-12-07T01:19:57.647Z,1008.09
2022-12-07T01:20:57.640Z,1008.07
2022-12-07T01:21:57.677Z,1008.08
2022-12-07T01:22:57.694Z,1008.10
2022-12-07T01:23:57.736Z,1008.11
2022-12-07T01:24:57.783Z,1008.05
2022-12-07T01:25:57.810Z,1008.09
2022-12-07T01:26:57.825Z,1008.09
2022-12-07T01:27:57.828Z,1008.08
2022-12-07T01:28:57.857Z,1008.04
2022-12-07T01:29:57.928Z,1008.05
2022-12-07T01:30:57.933Z,1008.05
2022-12-07T01:31:57.918Z,1008.00
2022-12-07T01:32:57.965Z,1008.04
2022-12-07T01:33:58.000Z,1008.03
2022-12-07T01:34:58.050Z,1008.02
2022-12-07T01:35:58.054Z,1008.00
2022-12-07T01:36:58.067Z,1008.01
2022-12-07T01:37:58.073Z,1007.99
2022-12-07T01:38:58.084Z,1007.97
2022-12-07T01:39:58.127Z,1007.98
2022-12-07T01:40:58.161Z,1007.94
2022-12-07T01:41:58.286Z,1007.97
2022-12-07T01:42:58.220Z,1007.97
2022-12-07T01:43:58.232Z,1007.99
2022-12-07T01:44:58.305Z,1007.96
2022-12-07T01:45:58.371Z,1007.97
2022-12-07T01:46:58.329Z,1007.99
2022-12-07T01:47:58.351Z,1007.95
2022-12-07T01:48:58.352Z,1007.96
2022-12-07T01:49:58.500Z,1007.92
2022-12-07T01:50:58.405Z,1007.92
2022-12-07T01:51:58.445Z,1007.88
2022-12-07T01:52:58.453Z,1007.90
2022-12-07T01:53:58.532Z,1007.81
2022-12-07T01:54:58.554Z,1007.79
2022-12-07T01:55:58.560Z,1007.75
2022-12-07T01:57:59.844Z,1007.77
2022-12-07T01:58:59.897Z,1007.75
2022-12-07T02:00:00.339Z,1007.72
2022-12-07T02:01:00.014Z,1007.69
2022-12-07T02:02:00.031Z,1007.65
2022-12-07T02:02:59.983Z,1007.67
2022-12-07T02:03:59.999Z,1007.65
2022-12-07T02:05:00.025Z,1007.65
2022-12-07T02:06:00.027Z,1007.66
2022-12-07T02:07:00.025Z,1007.65
2022-12-07T02:08:00.129Z,1007.64
2022-12-07T02:09:00.101Z,1007.67
2022-12-07T02:10:00.397Z,1007.63
2022-12-07T02:11:00.145Z,1007.64
2022-12-07T02:12:00.175Z,1007.62
2022-12-07T02:13:00.180Z,1007.66
2022-12-07T02:14:00.215Z,1007.64
2022-12-07T02:15:00.253Z,1007.64
2022-12-07T02:16:00.314Z,1007.65
2022-12-07T02:17:00.285Z,1007.62
2022-12-07T02:18:00.319Z,1007.62
2022-12-07T02:19:00.345Z,1007.63
2022-12-07T02:20:00.700Z,1007.62
2022-12-07T02:21:00.497Z,1007.57
2022-12-07T02:22:00.438Z,1007.57
2022-12-07T02:23:00.457Z,1007.54
2022-12-07T02:24:00.457Z,1007.57
2022-12-07T02:25:00.510Z,1007.54
2022-12-07T02:26:00.513Z,1007.55
2022-12-07T02:27:00.545Z,1007.53
2022-12-07T02:28:00.574Z,1007.54
2022-12-07T02:29:00.611Z,1007.53
2022-12-07T02:30:01.002Z,1007.50
2022-12-07T02:31:00.701Z,1007.46
2022-12-07T02:32:00.687Z,1007.50
2022-12-07T02:33:00.702Z,1007.46
2022-12-07T02:34:00.739Z,1007.40
2022-12-07T02:35:00.758Z,1007.44
2022-12-07T02:36:00.788Z,1007.39
2022-12-07T02:37:00.822Z,1007.37
2022-12-07T02:38:00.860Z,1007.38
2022-12-07T02:39:00.885Z,1007.33
2022-12-07T02:40:01.091Z,1007.34
2022-12-07T02:41:00.911Z,1007.34
2022-12-07T02:42:00.947Z,1007.35
2022-12-07T02:43:00.943Z,1007.29
2022-12-07T02:44:00.969Z,1007.30
2022-12-07T02:45:01.013Z,1007.29
2022-12-07T02:46:01.047Z,1007.27
2022-12-07T02:47:01.062Z,1007.22
2022-12-07T02:48:01.084Z,1007.24
2022-12-07T02:49:01.126Z,1007.23
2022-12-07T02:50:01.469Z,1007.20
2022-12-07T02:51:01.184Z,1007.16
2022-12-07T02:52:01.195Z,1007.18
2022-12-07T02:53:01.238Z,1007.22
2022-12-07T02:54:01.257Z,1007.13
2022-12-07T02:55:01.317Z,1007.13
2022-12-07T02:56:01.301Z,1007.12
2022-12-07T02:57:01.325Z,1007.09
2022-12-07T02:58:01.362Z,1007.09
2022-12-07T02:59:01.419Z,1007.12
2022-12-07T03:00:01.920Z,1007.08
2022-12-07T03:01:01.487Z,1007.11
2022-12-07T03:02:01.559Z,1007.11
2022-12-07T03:03:01.626Z,1007.10
2022-12-07T03:04:01.589Z,1007.06
2022-12-07T03:05:01.607Z,1007.05
2022-12-07T03:06:01.590Z,1007.04
2022-12-07T03:07:01.628Z,1007.02
2022-12-07T03:08:01.723Z,1007.00
2022-12-07T03:09:01.683Z,1006.99
2022-12-07T03:10:02.129Z,1006.98
2022-12-07T03:11:01.753Z,1006.94
2022-12-07T03:12:01.770Z,1006.90
2022-12-07T03:13:01.808Z,1006.88
2022-12-07T03:14:01.841Z,1006.85
2022-12-07T03:15:01.896Z,1006.84
2022-12-07T03:16:01.965Z,1006.79
2022-12-07T03:17:01.896Z,1006.80
2022-12-07T03:18:01.928Z,1006.81
2022-12-07T03:19:01.952Z,1006.81
2022-12-07T03:20:02.523Z,1006.77
2022-12-07T03:21:01.997Z,1006.79
2022-12-07T03:22:02.010Z,1006.79
2022-12-07T03:23:02.043Z,1006.77
2022-12-07T03:24:02.103Z,1006.74
2022-12-07T03:25:02.157Z,1006.69
2022-12-07T03:26:02.160Z,1006.68
2022-12-07T03:27:02.192Z,1006.66
2022-12-07T03:28:02.192Z,1006.68
2022-12-07T03:29:02.229Z,1006.69
2022-12-07T03:30:02.473Z,1006.69
2022-12-07T03:31:02.337Z,1006.61
2022-12-07T03:32:02.292Z,1006.59
2022-12-07T03:33:02.325Z,1006.53
2022-12-07T03:34:02.344Z,1006.53
2022-12-07T03:35:02.363Z,1006.50
2022-12-07T03:36:02.356Z,1006.48
2022-12-07T03:37:02.379Z,1006.40
2022-12-07T03:38:02.405Z,1006.41
2022-12-07T03:39:02.452Z,1006.40
2022-12-07T03:40:02.677Z,1006.38
2022-12-07T03:41:02.479Z,1006.33
2022-12-07T03:42:02.503Z,1006.33
2022-12-07T03:43:02.547Z,1006.36
2022-12-07T03:44:02.533Z,1006.34
2022-12-07T03:45:02.588Z,1006.34
2022-12-07T03:46:02.636Z,1006.28
2022-12-07T03:47:02.632Z,1006.26
2022-12-07T03:48:02.634Z,1006.22
2022-12-07T03:49:02.655Z,1006.18
2022-12-07T03:50:02.968Z,1006.18
2022-12-07T03:51:02.738Z,1006.21
2022-12-07T03:52:02.813Z,1006.19
2022-12-07T03:53:02.754Z,1006.11
2022-12-07T03:54:02.784Z,1006.11
2022-12-07T03:55:02.830Z,1006.11
2022-12-07T03:56:02.814Z,1006.09
2022-12-07T03:57:02.846Z,1006.08
2022-12-07T03:58:02.910Z,1006.02
2022-12-07T03:59:02.888Z,1006.07
2022-12-07T04:00:03.410Z,1006.08
2022-12-07T04:01:02.958Z,1006.05
2022-12-07T04:02:03.043Z,1006.07
2022-12-07T04:03:03.049Z,1006.07
2022-12-07T04:04:03.013Z,1006.06
2022-12-07T04:05:03.029Z,1006.04
2022-12-07T04:06:03.023Z,1006.02
2022-12-07T04:07:03.049Z,1006.02
2022-12-07T04:08:03.182Z,1006.01
2022-12-07T04:09:03.100Z,1006.01
2022-12-07T04:10:03.304Z,1005.94
2022-12-07T04:11:03.138Z,1005.96
2022-12-07T04:12:03.144Z,1006.00
2022-12-07T04:13:03.182Z,1005.91
2022-12-07T04:14:03.200Z,1005.88
2022-12-07T04:15:03.247Z,1005.85
2022-12-07T04:16:03.256Z,1005.89
2022-12-07T04:17:03.272Z,1005.93
2022-12-07T04:18:03.309Z,1005.90
2022-12-07T04:19:03.349Z,1005.89
2022-12-07T04:20:03.567Z,1005.84
2022-12-07T04:21:03.434Z,1005.89
2022-12-07T04:22:03.477Z,1005.89
2022-12-07T04:23:03.517Z,1005.90
2022-12-07T04:24:03.572Z,1005.88
2022-12-07T04:25:03.570Z,1005.81
2022-12-07T04:26:03.559Z,1005.83
2022-12-07T04:27:03.598Z,1005.82
2022-12-07T04:28:03.600Z,1005.76
2022-12-07T04:29:07.560Z,1005.77
2022-12-07T04:30:03.903Z,1005.74
2022-12-07T04:31:03.784Z,1005.75
2022-12-07T04:32:03.708Z,1005.68
2022-12-07T04:33:03.711Z,1005.66
2022-12-07T04:34:03.728Z,1005.65
2022-12-07T04:35:03.772Z,1005.65
2022-12-07T04:36:03.768Z,1005.69
2022-12-07T04:37:03.820Z,1005.65
2022-12-07T04:38:03.827Z,1005.65
2022-12-07T04:39:03.849Z,1005.63
2022-12-07T04:40:04.284Z,1005.60
2022-12-07T04:41:03.882Z,1005.63
2022-12-07T04:42:03.911Z,1005.63
2022-12-07T04:43:03.931Z,1005.65
2022-12-07T04:44:03.984Z,1005.65
2022-12-07T04:45:04.009Z,1005.64
2022-12-07T04:46:03.995Z,1005.60
2022-12-07T04:47:04.062Z,1005.62
2022-12-07T04:48:04.051Z,1005.63
2022-12-07T04:49:04.054Z,1005.68
2022-12-07T04:50:04.544Z,1005.63
2022-12-07T04:51:04.149Z,1005.65
2022-12-07T04:52:04.195Z,1005.63
2022-12-07T04:53:04.200Z,1005.62
2022-12-07T04:54:04.253Z,1005.56
2022-12-07T04:55:04.281Z,1005.58
2022-12-07T04:56:04.273Z,1005.56
2022-12-07T04:57:04.336Z,1005.62
2022-12-07T04:58:04.351Z,1005.60
2022-12-07T04:59:04.387Z,1005.57
2022-12-07T05:00:04.774Z,1005.53
2022-12-07T05:01:04.534Z,1005.58
2022-12-07T05:02:04.540Z,1005.54
2022-12-07T05:03:04.485Z,1005.54
2022-12-07T05:04:04.481Z,1005.56
2022-12-07T05:05:04.623Z,1005.54
2022-12-07T05:06:07.871Z,1005.55
2022-12-07T05:07:04.582Z,1005.53
2022-12-07T05:08:04.642Z,1005.47
2022-12-07T05:09:04.646Z,1005.49
2022-12-07T05:10:05.369Z,1005.45
2022-12-07T05:11:04.682Z,1005.47
2022-12-07T05:12:04.707Z,1005.36
2022-12-07T05:13:04.753Z,1005.38
2022-12-07T05:14:04.776Z,1005.38
2022-12-07T05:15:04.841Z,1005.37
2022-12-07T05:16:04.878Z,1005.35
2022-12-07T05:17:04.890Z,1005.36
2022-12-07T05:18:04.867Z,1005.37
2022-12-07T05:19:04.982Z,1005.36
2022-12-07T05:20:05.346Z,1005.35
2022-12-07T05:21:04.981Z,1005.38
2022-12-07T05:22:05.015Z,1005.35
2022-12-07T05:23:05.040Z,1005.34
2022-12-07T05:24:05.073Z,1005.35
2022-12-07T05:25:05.078Z,1005.36
2022-12-07T05:26:05.072Z,1005.33
2022-12-07T05:27:05.100Z,1005.35
2022-12-07T05:28:05.112Z,1005.36
2022-12-07T05:29:05.143Z,1005.36
2022-12-07T05:30:05.373Z,1005.37
2022-12-07T05:31:05.184Z,1005.32
2022-12-07T05:32:05.275Z,1005.29
2022-12-07T05:33:05.232Z,1005.30
2022-12-07T05:34:05.264Z,1005.26
2022-12-07T05:35:05.308Z,1005.28
2022-12-07T05:36:05.320Z,1005.29
2022-12-07T05:37:05.333Z,1005.28
2022-12-07T05:38:05.371Z,1005.26
2022-12-07T05:39:05.408Z,1005.29
2022-12-07T05:40:05.652Z,1005.26
2022-12-07T05:41:05.435Z,1005.23
2022-12-07T05:42:05.466Z,1005.22
2022-12-07T05:43:05.503Z,1005.19
2022-12-07T05:44:05.502Z,1005.20
2022-12-07T05:45:05.543Z,1005.18
2022-12-07T05:46:05.562Z,1005.15
2022-12-07T05:47:05.548Z,1005.09
2022-12-07T05:48:05.585Z,1005.12
2022-12-07T05:49:05.617Z,1005.10
2022-12-07T05:50:05.638Z,1005.08
2022-12-07T05:51:05.623Z,1005.04
2022-12-07T05:52:05.661Z,1005.04
2022-12-07T05:53:05.705Z,1005.06
2022-12-07T05:54:05.736Z,1005.09
2022-12-07T05:55:05.751Z,1005.05
2022-12-07T05:56:05.733Z,1005.06
2022-12-07T05:57:05.769Z,1004.99
2022-12-07T05:58:05.833Z,1005.01
2022-12-07T05:59:05.820Z,1004.94
2022-12-07T06:00:06.139Z,1004.95
2022-12-07T06:01:05.857Z,1004.94
2022-12-07T06:02:05.926Z,1004.97
2022-12-07T06:03:05.940Z,1004.92
2022-12-07T06:04:05.930Z,1004.88
2022-12-07T06:05:05.986Z,1004.84
2022-12-07T06:06:06.072Z,1004.84
2022-12-07T06:07:06.037Z,1004.83
2022-12-07T06:08:06.439Z,1004.82
2022-12-07T06:09:06.101Z,1004.83
2022-12-07T06:10:06.123Z,1004.80
2022-12-07T06:11:06.106Z,1004.79
2022-12-07T06:12:06.107Z,1004.80
2022-12-07T06:13:06.124Z,1004.75
2022-12-07T06:14:06.156Z,1004.78
2022-12-07T06:15:06.199Z,1004.75
2022-12-07T06:16:06.206Z,1004.76
2022-12-07T06:17:06.229Z,1004.79
2022-12-07T06:18:06.233Z,1004.80
2022-12-07T06:19:06.262Z,1004.76
2022-12-07T06:20:06.278Z,1004.78
2022-12-07T06:21:06.286Z,1004.75
2022-12-07T06:22:06.306Z,1004.77
2022-12-07T06:23:06.344Z,1004.75
2022-12-07T06:24:06.331Z,1004.77
2022-12-07T06:25:08.794Z,1004.76
2022-12-07T06:26:06.342Z,1004.78
2022-12-07T06:27:06.389Z,1004.72
2022-12-07T06:28:06.428Z,1004.77
2022-12-07T06:29:06.464Z,1004.77
2022-12-07T06:30:06.533Z,1004.76
2022-12-07T06:31:12.255Z,1004.80
2022-12-07T06:32:06.630Z,1004.76
2022-12-07T06:33:06.532Z,1004.74
2022-12-07T06:34:06.565Z,1004.74
2022-12-07T06:35:06.619Z,1004.77
2022-12-07T06:36:06.611Z,1004.76
2022-12-07T06:37:06.644Z,1004.77
2022-12-07T06:38:06.677Z,1004.76
2022-12-07T06:39:06.675Z,1004.73
2022-12-07T06:40:06.694Z,1004.73
2022-12-07T06:41:06.686Z,1004.74
2022-12-07T06:42:06.766Z,1004.75
2022-12-07T06:43:06.746Z,1004.73
2022-12-07T06:44:06.769Z,1004.72
2022-12-07T06:45:06.824Z,1004.69
2022-12-07T06:46:06.849Z,1004.72
2022-12-07T06:47:39.106Z,1004.71
2022-12-07T06:48:06.857Z,1004.66
2022-12-07T06:49:06.860Z,1004.66
2022-12-07T06:50:06.921Z,1004.71
2022-12-07T06:51:06.938Z,1004.71
2022-12-07T06:52:06.943Z,1004.74
2022-12-07T06:53:06.953Z,1004.66
2022-12-07T06:54:06.998Z,1004.64
2022-12-07T06:55:07.055Z,1004.70
2022-12-07T06:56:07.049Z,1004.69
2022-12-07T06:57:07.067Z,1004.68
2022-12-07T06:58:07.106Z,1004.64
2022-12-07T06:59:07.152Z,1004.70
2022-12-07T07:00:07.351Z,1004.65
2022-12-07T07:01:07.252Z,1004.63
2022-12-07T07:02:07.347Z,1004.63
2022-12-07T07:03:07.280Z,1004.67
2022-12-07T07:04:07.293Z,1004.63
2022-12-07T07:05:07.350Z,1004.65
2022-12-07T07:06:07.326Z,1004.69
2022-12-07T07:07:07.368Z,1004.66
2022-12-07T07:08:23.491Z,1004.65
2022-12-07T07:09:07.463Z,1004.62
2022-12-07T07:10:07.448Z,1004.62
2022-12-07T07:11:07.434Z,1004.61
2022-12-07T07:12:07.466Z,1004.56
2022-12-07T07:13:07.499Z,1004.58
2022-12-07T07:14:07.534Z,1004.63
2022-12-07T07:15:07.590Z,1004.63
2022-12-07T07:16:07.592Z,1004.63
2022-12-07T07:17:07.689Z,1004.62
2022-12-07T07:18:08.167Z,1004.61
2022-12-07T07:19:07.734Z,1004.65
2022-12-07T07:20:07.776Z,1004.64
2022-12-07T07:21:07.800Z,1004.67
2022-12-07T07:22:07.833Z,1004.63
2022-12-07T07:23:07.853Z,1004.67
2022-12-07T07:24:07.874Z,1004.62
2022-12-07T07:25:07.920Z,1004.65
2022-12-07T07:26:07.922Z,1004.64
2022-12-07T07:27:07.956Z,1004.64
2022-12-07T07:28:07.963Z,1004.65
2022-12-07T07:29:07.964Z,1004.64
2022-12-07T07:30:08.030Z,1004.65
2022-12-07T07:31:08.075Z,1004.65
2022-12-07T07:32:08.030Z,1004.63
2022-12-07T07:33:08.066Z,1004.62
2022-12-07T07:34:08.102Z,1004.59
2022-12-07T07:35:08.146Z,1004.62
2022-12-07T07:36:08.148Z,1004.61
2022-12-07T07:37:08.150Z,1004.62
2022-12-07T07:38:08.176Z,1004.65
2022-12-07T07:39:08.215Z,1004.68
2022-12-07T07:40:08.265Z,1004.68
2022-12-07T07:41:08.259Z,1004.68
2022-12-07T07:42:08.300Z,1004.71
2022-12-07T07:43:08.312Z,1004.68
2022-12-07T07:44:08.349Z,1004.66
2022-12-07T07:45:08.380Z,1004.70
2022-12-07T07:46:08.434Z,1004.67
2022-12-07T07:47:08.423Z,1004.71
2022-12-07T07:48:08.436Z,1004.72
2022-12-07T07:49:08.467Z,1004.68
2022-12-07T07:50:08.519Z,1004.74
2022-12-07T07:51:08.537Z,1004.64
2022-12-07T07:52:08.550Z,1004.65
2022-12-07T07:53:08.574Z,1004.70
2022-12-07T07:54:08.571Z,1004.66
2022-12-07T07:55:08.619Z,1004.67
2022-12-07T07:56:08.647Z,1004.67
2022-12-07T07:57:08.682Z,1004.68
2022-12-07T07:58:08.703Z,1004.73
2022-12-07T07:59:08.749Z,1004.71
2022-12-07T08:00:08.791Z,1004.74
2022-12-07T08:01:08.908Z,1004.76
2022-12-07T08:02:08.809Z,1004.79
2022-12-07T08:03:08.843Z,1004.76
2022-12-07T08:04:08.878Z,1004.73
2022-12-07T08:05:09.268Z,1004.77
2022-12-07T08:06:08.904Z,1004.77
2022-12-07T08:07:08.929Z,1004.78
2022-12-07T08:08:18.156Z,1004.75
2022-12-07T08:09:08.942Z,1004.76
2022-12-07T08:10:08.957Z,1004.76
2022-12-07T08:11:09.007Z,1004.80
2022-12-07T08:12:09.035Z,1004.78
2022-12-07T08:13:09.078Z,1004.75
2022-12-07T08:14:09.110Z,1004.82
2022-12-07T08:15:09.152Z,1004.74
2022-12-07T08:16:09.174Z,1004.72
2022-12-07T08:17:09.174Z,1004.80
2022-12-07T08:18:09.281Z,1004.82
2022-12-07T08:19:09.198Z,1004.78
2022-12-07T08:20:09.285Z,1004.77
2022-12-07T08:21:09.275Z,1004.78
2022-12-07T08:22:09.311Z,1004.89
2022-12-07T08:23:09.337Z,1004.78
2022-12-07T08:24:09.373Z,1004.79
2022-12-07T08:25:09.425Z,1004.87
2022-12-07T08:26:09.412Z,1004.90
2022-12-07T08:27:09.449Z,1004.85
2022-12-07T08:28:09.483Z,1004.89
2022-12-07T08:29:09.522Z,1004.91
2022-12-07T08:30:09.565Z,1004.92
2022-12-07T08:31:09.700Z,1004.87
2022-12-07T08:32:10.048Z,1004.87
2022-12-07T08:33:09.614Z,1004.88
2022-12-07T08:34:09.647Z,1004.89
2022-12-07T08:35:09.673Z,1004.91
2022-12-07T08:36:09.673Z,1004.92
2022-12-07T08:37:09.720Z,1004.89
2022-12-07T08:38:09.719Z,1004.92
2022-12-07T08:40:09.772Z,1004.99
2022-12-07T08:41:09.843Z,1004.99
2022-12-07T08:42:09.843Z,1004.95
2022-12-07T08:43:09.874Z,1005.00
2022-12-07T08:44:09.912Z,1005.03
2022-12-07T08:45:09.992Z,1005.01
2022-12-07T08:46:10.007Z,1005.02
2022-12-07T08:47:09.959Z,1004.99
2022-12-07T08:48:10.007Z,1005.00
2022-12-07T08:49:10.084Z,1004.98
2022-12-07T08:50:10.051Z,1005.01
2022-12-07T08:51:10.062Z,1005.00
2022-12-07T08:52:10.068Z,1005.03
2022-12-07T08:53:10.093Z,1005.01
2022-12-07T08:54:10.102Z,1005.08
2022-12-07T08:55:10.172Z,1005.03
2022-12-07T08:56:10.204Z,1005.04
2022-12-07T08:57:10.218Z,1005.06
2022-12-07T08:58:10.238Z,1005.07
2022-12-07T08:59:10.265Z,1005.07
2022-12-07T09:00:10.287Z,1005.10
2022-12-07T09:01:10.315Z,1005.09
2022-12-07T09:02:10.341Z,1005.19
2022-12-07T09:03:10.309Z,1005.14
2022-12-07T09:04:10.371Z,1005.17
2022-12-07T09:05:16.134Z,1005.20
2022-12-07T09:06:10.520Z,1005.19
2022-12-07T09:07:10.517Z,1005.17
2022-12-07T09:08:10.573Z,1005.21
2022-12-07T09:09:10.533Z,1005.20
2022-12-07T09:10:10.550Z,1005.21
2022-12-07T09:11:10.549Z,1005.19
2022-12-07T09:12:10.542Z,1005.20
2022-12-07T09:13:10.556Z,1005.23
2022-12-07T09:14:10.557Z,1005.22
2022-12-07T09:15:10.609Z,1005.13
2022-12-07T09:16:10.707Z,1005.20
2022-12-07T09:17:10.656Z,1005.17
2022-12-07T09:18:10.697Z,1005.17
2022-12-07T09:19:10.727Z,1005.19
2022-12-07T09:20:10.770Z,1005.22
2022-12-07T09:21:10.792Z,1005.16
2022-12-07T09:22:10.788Z,1005.24
2022-12-07T09:23:10.784Z,1005.28
2022-12-07T09:24:10.818Z,1005.27
2022-12-07T09:25:10.876Z,1005.28
2022-12-07T09:26:11.272Z,1005.27
2022-12-07T09:27:10.899Z,1005.29
2022-12-07T09:28:10.932Z,1005.27
2022-12-07T09:29:10.936Z,1005.28
2022-12-07T09:30:10.992Z,1005.32
2022-12-07T09:31:26.880Z,1005.38
2022-12-07T09:32:11.957Z,1005.31
2022-12-07T09:33:11.054Z,1005.34
2022-12-07T09:34:11.201Z,1005.32
2022-12-07T09:35:11.116Z,1005.35
2022-12-07T09:36:11.121Z,1005.34
2022-12-07T09:37:11.149Z,1005.34
2022-12-07T09:38:11.178Z,1005.36
2022-12-07T09:39:11.202Z,1005.33
2022-12-07T09:40:11.233Z,1005.40
2022-12-07T09:41:11.233Z,1005.41
2022-12-07T09:42:11.266Z,1005.39
2022-12-07T09:43:11.362Z,1005.40
2022-12-07T09:44:11.342Z,1005.47
2022-12-07T09:45:11.355Z,1005.41
2022-12-07T09:46:11.410Z,1005.42
2022-12-07T09:47:11.399Z,1005.43
2022-12-07T09:48:11.433Z,1005.44
2022-12-07T09:49:11.493Z,1005.50
2022-12-07T09:50:11.509Z,1005.44
2022-12-07T09:51:11.500Z,1005.42
2022-12-07T09:52:11.506Z,1005.46
2022-12-07T09:53:11.540Z,1005.51
2022-12-07T09:54:11.610Z,1005.46
2022-12-07T09:55:11.629Z,1005.51
2022-12-07T09:56:11.617Z,1005.48
2022-12-07T09:57:11.627Z,1005.47
2022-12-07T09:58:11.664Z,1005.54
2022-12-07T09:59:11.692Z,1005.44
2022-12-07T10:00:11.760Z,1005.38
2022-12-07T10:01:11.745Z,1005.41
2022-12-07T10:02:11.836Z,1005.41
2022-12-07T10:03:11.810Z,1005.42
2022-12-07T10:04:11.840Z,1005.51
2022-12-07T10:05:11.946Z,1005.51
2022-12-07T10:06:11.926Z,1005.50
2022-12-07T10:07:11.941Z,1005.51
2022-12-07T10:08:12.034Z,1005.47
2022-12-07T10:09:11.995Z,1005.50
2022-12-07T10:10:12.063Z,1005.49
2022-12-07T10:11:12.068Z,1005.40
2022-12-07T10:12:12.075Z,1005.43
2022-12-07T10:13:12.117Z,1005.43
2022-12-07T10:14:12.142Z,1005.44
2022-12-07T10:15:12.158Z,1005.39
2022-12-07T10:16:12.157Z,1005.43
2022-12-07T10:17:12.179Z,1005.41
2022-12-07T10:18:12.222Z,1005.41
2022-12-07T10:19:12.227Z,1005.46
2022-12-07T10:20:12.296Z,1005.48
2022-12-07T10:21:12.315Z,1005.46
2022-12-07T10:22:12.346Z,1005.44
2022-12-07T10:23:12.353Z,1005.41
2022-12-07T10:24:12.378Z,1005.44
2022-12-07T10:25:12.416Z,1005.43
2022-12-07T10:26:12.423Z,1005.48
2022-12-07T10:27:12.422Z,1005.43
2022-12-07T10:28:12.443Z,1005.39
2022-12-07T10:29:12.464Z,1005.44
2022-12-07T10:30:12.632Z,1005.42
2022-12-07T10:31:12.574Z,1005.42
2022-12-07T10:32:12.516Z,1005.46
2022-12-07T10:33:12.539Z,1005.43
2022-12-07T10:34:12.592Z,1005.43
2022-12-07T10:35:12.632Z,1005.44
2022-12-07T10:36:13.037Z,1005.46
2022-12-07T10:37:12.677Z,1005.47
2022-12-07T10:38:12.703Z,1005.48
2022-12-07T10:39:12.737Z,1005.51
2022-12-07T10:40:12.801Z,1005.52
2022-12-07T10:41:12.787Z,1005.51
2022-12-07T10:42:12.810Z,1005.54
2022-12-07T10:43:12.857Z,1005.54
2022-12-07T10:44:12.843Z,1005.53
2022-12-07T10:45:12.952Z,1005.51
2022-12-07T10:46:14.964Z,1005.53
2022-12-07T10:47:13.006Z,1005.49
2022-12-07T10:48:12.993Z,1005.46
2022-12-07T10:49:13.027Z,1005.55
2022-12-07T10:50:13.090Z,1005.53
2022-12-07T10:51:13.103Z,1005.45
2022-12-07T10:52:13.098Z,1005.49
2022-12-07T10:53:13.141Z,1005.46
2022-12-07T10:54:13.141Z,1005.45
2022-12-07T10:55:13.179Z,1005.44
2022-12-07T10:56:13.175Z,1005.44
2022-12-07T10:57:13.176Z,1005.42
2022-12-07T10:58:13.205Z,1005.37
2022-12-07T10:59:13.216Z,1005.44
2022-12-07T11:00:13.274Z,1005.39
2022-12-07T11:01:13.355Z,1005.40
2022-12-07T11:02:17.565Z,1005.34
2022-12-07T11:03:13.298Z,1005.40
2022-12-07T11:04:13.326Z,1005.42
2022-12-07T11:05:13.357Z,1005.44
2022-12-07T11:06:13.367Z,1005.38
2022-12-07T11:07:13.395Z,1005.40
2022-12-07T11:08:13.438Z,1005.39
2022-12-07T11:09:13.457Z,1005.40
2022-12-07T11:10:13.555Z,1005.41
2022-12-07T11:11:13.493Z,1005.40
2022-12-07T11:12:13.507Z,1005.41
2022-12-07T11:13:13.543Z,1005.40
2022-12-07T11:14:13.576Z,1005.45
2022-12-07T11:15:13.598Z,1005.38
2022-12-07T11:16:13.622Z,1005.41
2022-12-07T11:17:13.615Z,1005.39
2022-12-07T11:18:13.659Z,1005.42
2022-12-07T11:19:13.723Z,1005.42
2022-12-07T11:20:13.800Z,1005.44
2022-12-07T11:21:13.725Z,1005.46
2022-12-07T11:22:13.746Z,1005.37
2022-12-07T11:23:13.764Z,1005.40
2022-12-07T11:24:13.759Z,1005.36
2022-12-07T11:25:13.810Z,1005.33
2022-12-07T11:26:13.787Z,1005.35
2022-12-07T11:27:13.872Z,1005.33
2022-12-07T11:28:13.910Z,1005.34
2022-12-07T11:29:13.932Z,1005.28
2022-12-07T11:30:13.979Z,1005.22
2022-12-07T11:31:14.066Z,1005.23
2022-12-07T11:32:14.032Z,1005.24
2022-12-07T11:33:14.063Z,1005.22
2022-12-07T11:34:14.081Z,1005.22
2022-12-07T11:35:14.130Z,1005.22
2022-12-07T11:36:14.142Z,1005.21
2022-12-07T11:37:14.191Z,1005.19
2022-12-07T11:38:14.189Z,1005.20
2022-12-07T11:39:14.258Z,1005.19
2022-12-07T11:40:14.287Z,1005.25
2022-12-07T11:41:14.579Z,1005.23
2022-12-07T11:42:14.260Z,1005.26
2022-12-07T11:43:14.256Z,1005.19
2022-12-07T11:44:14.281Z,1005.24
2022-12-07T11:45:14.364Z,1005.25
2022-12-07T11:46:14.332Z,1005.24
2022-12-07T11:47:14.369Z,1005.24
2022-12-07T11:48:14.350Z,1005.21
2022-12-07T11:49:14.384Z,1005.16
2022-12-07T11:50:14.431Z,1005.14
2022-12-07T11:51:14.444Z,1005.13
2022-12-07T11:52:14.459Z,1005.11
2022-12-07T11:53:14.489Z,1005.10
2022-12-07T11:54:14.518Z,1005.13
2022-12-07T11:55:14.570Z,1005.16
2022-12-07T11:56:14.566Z,1005.12
2022-12-07T11:57:18.587Z,1005.13
2022-12-07T11:58:14.574Z,1005.16
2022-12-07T11:59:14.616Z,1005.16
2022-12-07T12:00:14.703Z,1005.13
2022-12-07T12:01:14.663Z,1005.15
2022-12-07T12:02:14.732Z,1005.16
2022-12-07T12:03:14.791Z,1005.14
2022-12-07T12:04:14.753Z,1005.11
2022-12-07T12:05:14.833Z,1005.12
2022-12-07T12:06:14.837Z,1005.04
2022-12-07T12:10:14.918Z,1005.06
2022-12-07T12:11:14.970Z,1005.06